SKPE/PEI METAR and TAF weather

Enter ICAO airport designator
Station Type Date Time Source
SKPE METAR 2019/08/21 23:00 UTC NOAA

SKPE 212300Z 28005KT 9999 FEW018 SCT200 24/19 A2999


Station Type Date Time Source
SKPE Decoded METAR 2019/08/21 23:00 UTC NOAA

Station name not available
Aug 21, 2019 - 07:00 PM EDT / 2019.08.21 2300 UTC
Wind: from the W (280 degrees) at 6 MPH (5 KT):0
Visibility: greater than 7 mile(s):0
Sky conditions: partly cloudy
Temperature: 75 F (24 C)
Dew Point: 66 F (19 C)
Relative Humidity: 73%
Pressure (altimeter): 29.99 in. Hg (1015 hPa)
ob: SKPE 212300Z 28005KT 9999 FEW018 SCT200 24/19 A2999
cycle: 23

Station Type Date Time Source
SKPE TAF 2019/08/21 18:45 UTC NOAA

TAF SKPE 211630Z 2118/2218 32004KT 9999 FEW017
BECMG 2120/2122 VRB02KT
BECMG 2209/2211 12007KT TX30/2119Z TN18/2211Z

Example: see airport list